Time;durP1;ratioP1;P1;durP2;ratioP2;P2;SDS_P1;SDS_P2;PMS_P1;PMS_P2;Temp;Humidity;BMP_temperature;BMP_pressure;BME280_temperature;BME280_humidity;BME280_pressure;Samples;Min_cycle;Max_cycle;Signal;HPM_P1;HPM_P2
2021/08/30 00:01:00;;;;;;;20.43;7.08;;;;;;;14.30;76.18;98478.41;2175634;82;21044;-72
2021/08/30 00:04:02;;;;;;;19.00;7.13;;;;;;;14.25;76.44;98485.85;2175555;82;21135;-68
2021/08/30 00:07:03;;;;;;;20.20;7.33;;;;;;;14.25;76.58;98491.13;2175234;81;21544;-68
2021/08/30 00:10:05;;;;;;;30.30;13.87;;;;;;;14.22;76.41;98485.61;2175617;82;21040;-68
2021/08/30 00:13:06;;;;;;;23.27;8.03;;;;;;;14.21;76.84;98490.55;2175685;82;21539;-68
2021/08/30 00:16:07;;;;;;;20.77;6.77;;;;;;;14.16;76.83;98490.91;2175839;82;20986;-68
2021/08/30 00:19:09;;;;;;;19.03;6.30;;;;;;;14.15;77.03;98480.02;2175648;82;21046;-68
2021/08/30 00:22:10;;;;;;;16.97;5.37;;;;;;;14.15;77.35;98477.39;2175748;82;21068;-68
2021/08/30 00:25:12;;;;;;;20.10;5.97;;;;;;;14.16;77.38;98482.17;2175612;82;21032;-69
2021/08/30 00:28:13;;;;;;;19.20;5.30;;;;;;;14.27;76.78;98478.67;2175768;82;21044;-69
2021/08/30 00:31:14;;;;;;;15.27;5.30;;;;;;;14.19;76.83;98476.17;2175074;82;21080;-69
2021/08/30 00:34:16;;;;;;;18.80;5.87;;;;;;;14.14;76.94;98481.47;2165462;82;21490;-69
2021/08/30 00:37:17;;;;;;;20.20;5.87;;;;;;;14.11;76.92;98485.68;2165473;82;21048;-72
2021/08/30 00:40:19;;;;;;;18.70;6.00;;;;;;;14.09;76.91;98484.95;2165409;82;21519;-69
2021/08/30 00:43:20;;;;;;;15.23;5.77;;;;;;;14.03;76.94;98488.91;2165548;82;21044;-68
2021/08/30 00:46:21;;;;;;;19.07;6.20;;;;;;;14.03;76.99;98502.09;2165411;82;21041;-72
2021/08/30 00:49:23;;;;;;;20.33;6.03;;;;;;;14.07;77.40;98492.16;2165513;82;21009;-68
2021/08/30 00:52:24;;;;;;;18.77;7.10;;;;;;;14.12;77.27;98480.28;2165416;82;21035;-68
2021/08/30 00:55:26;;;;;;;23.80;9.60;;;;;;;14.07;77.48;98471.89;2165511;82;21020;-69
2021/08/30 00:58:27;;;;;;;21.70;9.13;;;;;;;14.12;77.84;98471.05;2165351;82;21032;-68
2021/08/30 01:01:30;;;;;;;26.60;9.05;;;;;;;14.16;77.72;98474.26;2164778;82;21559;-69
2021/08/30 01:04:31;;;;;;;21.63;9.03;;;;;;;14.13;77.55;98475.83;2165519;82;21052;-69
2021/08/30 01:07:33;;;;;;;21.65;8.70;;;;;;;14.09;77.56;98473.08;2164978;82;21078;-68
2021/08/30 01:10:34;;;;;;;23.37;8.60;;;;;;;14.04;77.75;98468.19;2165145;82;21008;-68
2021/08/30 01:13:36;;;;;;;19.12;7.20;;;;;;;14.03;77.93;98464.69;2165267;82;21045;-72
2021/08/30 01:16:37;;;;;;;20.03;7.37;;;;;;;14.02;77.94;98459.55;2165395;81;20965;-68
2021/08/30 01:19:38;;;;;;;18.07;6.10;;;;;;;13.96;78.26;98456.09;2165348;82;21040;-67
2021/08/30 01:22:40;;;;;;;19.90;7.12;;;;;;;13.87;78.28;98459.00;2165223;82;21568;-68
2021/08/30 01:25:42;;;;;;;20.63;7.10;;;;;;;13.79;78.67;98466.22;2165325;82;21400;-68
2021/08/30 01:28:43;;;;;;;20.87;6.47;;;;;;;13.75;78.76;98459.50;2165370;82;21070;-69
2021/08/30 01:31:44;;;;;;;20.00;7.00;;;;;;;13.71;78.91;98450.16;2163474;82;21073;-72
2021/08/30 01:34:46;;;;;;;19.50;6.57;;;;;;;13.72;79.09;98441.77;2149157;83;20989;-68
2021/08/30 01:37:49;;;;;;;18.87;6.60;;;;;;;13.72;79.09;98441.77;2128549;82;21515;-71
2021/08/30 01:40:51;;;;;;;18.37;6.75;;;;;;;13.78;79.14;98438.17;2149433;83;21045;-68
2021/08/30 01:43:52;;;;;;;17.47;6.40;;;;;;;13.79;78.96;98439.86;2149395;83;21049;-71
2021/08/30 01:46:53;;;;;;;20.17;7.05;;;;;;;13.77;78.73;98435.66;2149630;83;21025;-68
2021/08/30 01:52:58;;;;;;;21.80;8.45;;;;;;;13.86;79.08;98439.72;2128619;83;21045;-68
2021/08/30 01:56:04;;;;;;;28.02;9.33;;;;;;;13.91;79.00;98441.15;2149410;83;21543;-72
2021/08/30 02:02:07;;;;;;;22.60;8.95;;;;;;;14.05;79.07;98435.59;2128546;83;20950;-68
2021/08/30 02:05:09;;;;;;;;;;;;;;;14.10;78.89;98441.80;2151157;83;21540;-68
2021/08/30 02:08:10;;;;;;;25.08;8.95;;;;;;;14.12;78.87;98439.40;2148615;82;20144;-71
2021/08/30 02:11:14;;;;;;;22.60;9.10;;;;;;;14.13;78.97;98433.63;2149102;83;21499;-68
2021/08/30 02:14:15;;;;;;;22.02;8.33;;;;;;;14.17;79.04;98435.06;2128485;83;21524;-68
2021/08/30 02:17:16;;;;;;;20.50;8.13;;;;;;;14.17;79.24;98433.73;2149283;82;20977;-68
2021/08/30 02:20:18;;;;;;;21.93;8.20;;;;;;;14.15;79.21;98429.91;2149168;82;21613;-68
2021/08/30 02:23:19;;;;;;;20.82;7.78;;;;;;;14.14;79.22;98428.23;2149364;83;20977;-69
2021/08/30 02:26:21;;;;;;;21.10;8.33;;;;;;;14.10;79.26;98433.39;2149204;83;20958;-68
2021/08/30 02:29:22;;;;;;;20.17;7.78;;;;;;;14.09;79.19;98436.98;2149095;83;21020;-68
2021/08/30 02:32:24;;;;;;;22.33;8.47;;;;;;;14.03;79.37;98433.05;2149691;82;21036;-68
2021/08/30 02:35:25;;;;;;;32.13;12.77;;;;;;;14.10;79.33;98441.30;2151652;83;21037;-68
2021/08/30 02:38:26;;;;;;;48.33;20.77;;;;;;;14.12;79.36;98440.72;2151697;83;20977;-69
2021/08/30 02:41:28;;;;;;;39.63;18.33;;;;;;;14.15;79.35;98444.88;2151631;83;21535;-71
2021/08/30 02:44:29;;;;;;;26.63;12.20;;;;;;;14.16;79.23;98444.75;2151685;83;21029;-68
2021/08/30 02:47:31;;;;;;;27.10;12.65;;;;;;;14.21;79.24;98440.45;2151682;83;21452;-68
2021/08/30 02:50:32;;;;;;;23.03;11.03;;;;;;;14.30;79.27;98440.16;2151299;83;21005;-69
2021/08/30 02:53:33;;;;;;;24.57;10.53;;;;;;;14.33;79.16;98438.09;2151668;83;21069;-68
2021/08/30 02:56:35;;;;;;;25.43;10.00;;;;;;;14.33;78.98;98447.82;2151620;83;21481;-68
2021/08/30 02:59:36;;;;;;;22.67;10.43;;;;;;;14.34;78.96;98453.46;2151675;82;20982;-68
2021/08/30 03:02:38;;;;;;;22.58;10.10;;;;;;;14.32;78.93;98452.27;2151645;83;21499;-68
2021/08/30 03:05:39;;;;;;;24.33;10.30;;;;;;;14.35;78.92;98445.42;2151791;83;20982;-68
2021/08/30 03:08:41;;;;;;;23.37;10.27;;;;;;;14.44;79.09;98453.05;2151627;83;21258;-69
2021/08/30 03:11:42;;;;;;;22.60;9.87;;;;;;;14.50;78.85;98455.17;2151805;83;20982;-68
2021/08/30 03:14:43;;;;;;;21.83;9.50;;;;;;;14.50;78.87;98458.30;2151644;83;20981;-68
2021/08/30 03:17:45;;;;;;;21.47;9.30;;;;;;;14.52;78.60;98461.17;2151332;83;21025;-68
2021/08/30 03:20:46;;;;;;;24.97;8.53;;;;;;;14.50;78.97;98453.84;2151651;83;20977;-68
2021/08/30 03:23:48;;;;;;;20.93;8.37;;;;;;;14.62;78.71;98454.66;2151670;83;21544;-69
2021/08/30 03:26:49;;;;;;;21.57;8.23;;;;;;;14.45;78.60;98455.20;2151641;83;20973;-68
2021/08/30 03:29:53;;;;;;;22.73;9.87;;;;;;;14.29;78.97;98443.76;2151656;82;20981;-69
2021/08/30 03:32:54;;;;;;;21.65;8.45;;;;;;;14.06;79.36;98437.24;2158376;79;21518;-71
2021/08/30 03:35:55;;;;;;;20.90;7.90;;;;;;;13.91;79.99;98443.29;2232409;79;20956;-68
2021/08/30 03:38:57;;;;;;;22.75;8.48;;;;;;;13.73;80.14;98442.96;2232145;80;21479;-68
2021/08/30 03:41:59;;;;;;;21.17;7.97;;;;;;;13.64;80.28;98447.66;2232426;80;21031;-69
2021/08/30 03:45:01;;;;;;;23.32;8.53;;;;;;;13.58;80.39;98448.98;2231955;80;21590;-70
2021/08/30 03:48:03;;;;;;;22.98;8.60;;;;;;;13.66;80.80;98447.05;2231946;80;21031;-68
2021/08/30 03:51:05;;;;;;;20.50;8.07;;;;;;;13.81;80.68;98447.64;2232204;80;21524;-68
2021/08/30 03:54:06;;;;;;;22.52;8.73;;;;;;;13.85;80.62;98443.30;2232241;80;20976;-68
2021/08/30 03:57:08;;;;;;;21.67;8.63;;;;;;;13.80;80.90;98439.36;2231936;80;21598;-72
2021/08/30 04:00:10;;;;;;;22.73;8.20;;;;;;;13.76;80.73;98443.20;2232138;80;20964;-68
2021/08/30 04:03:12;;;;;;;22.13;8.70;;;;;;;13.80;80.67;98437.55;2232237;80;21486;-72
2021/08/30 04:06:14;;;;;;;20.45;7.72;;;;;;;13.83;80.62;98441.75;2232034;80;20976;-68
2021/08/30 04:09:19;;;;;;;21.20;8.30;;;;;;;13.84;80.44;98445.58;2232232;80;21522;-68
2021/08/30 04:12:19;;;;;;;26.07;10.10;;;;;;;13.90;80.45;98453.47;2212555;80;21054;-68
2021/08/30 04:15:20;;;;;;;27.83;12.07;;;;;;;13.94;80.37;98452.76;2232378;80;21059;-69
2021/08/30 04:18:22;;;;;;;26.23;10.00;;;;;;;14.00;80.32;98457.03;2232493;80;20929;-71
2021/08/30 04:21:23;;;;;;;25.45;10.75;;;;;;;14.00;80.11;98456.20;2232517;80;20976;-69
2021/08/30 04:24:24;;;;;;;28.73;11.87;;;;;;;13.99;80.18;98465.07;2232358;80;21486;-70
2021/08/30 04:27:26;;;;;;;27.00;11.63;;;;;;;13.98;80.38;98465.56;2232396;80;20976;-69
2021/08/30 04:30:27;;;;;;;22.07;9.10;;;;;;;13.96;80.39;98462.20;2232312;80;20991;-72
2021/08/30 04:33:29;;;;;;;21.33;8.40;;;;;;;13.86;80.61;98462.13;2232155;79;20961;-69
2021/08/30 04:36:30;;;;;;;21.23;8.47;;;;;;;13.75;80.89;98464.78;2232183;80;20988;-72
2021/08/30 04:39:32;;;;;;;23.07;8.37;;;;;;;13.72;81.11;98462.85;2232315;80;21036;-72
2021/08/30 04:42:33;;;;;;;21.17;8.20;;;;;;;13.72;81.42;98462.39;2232215;80;20983;-69
2021/08/30 04:45:35;;;;;;;23.07;8.23;;;;;;;13.75;81.06;98461.28;2232318;80;20984;-69
2021/08/30 04:48:36;;;;;;;20.95;8.03;;;;;;;13.76;81.00;98463.80;2232199;79;20929;-69
2021/08/30 04:51:38;;;;;;;21.23;8.05;;;;;;;13.82;81.09;98465.97;2231770;80;21456;-69
2021/08/30 04:54:39;;;;;;;22.13;9.73;;;;;;;13.92;81.00;98471.34;2232210;80;20984;-72
2021/08/30 04:57:41;;;;;;;25.63;10.10;;;;;;;14.00;81.08;98465.44;2232206;80;20940;-72
2021/08/30 05:00:42;;;;;;;23.87;10.18;;;;;;;14.07;80.91;98475.84;2232304;80;21036;-72
2021/08/30 05:03:44;;;;;;;22.67;9.90;;;;;;;14.10;80.82;98477.41;2232036;80;21069;-70
2021/08/30 05:06:45;;;;;;;24.63;11.12;;;;;;;14.13;80.77;98483.73;2232265;80;21028;-69
2021/08/30 05:09:46;;;;;;;22.50;10.43;;;;;;;14.11;80.69;98475.13;2232156;80;20955;-69
2021/08/30 05:12:48;;;;;;;25.90;11.70;;;;;;;14.03;80.83;98474.41;2232198;80;21506;-69
2021/08/30 05:15:49;;;;;;;23.47;10.57;;;;;;;14.06;80.91;98479.44;2232289;80;20992;-72
2021/08/30 05:18:51;;;;;;;23.27;10.90;;;;;;;14.13;81.16;98477.97;2232173;80;20979;-72
2021/08/30 05:21:53;;;;;;;24.13;11.20;;;;;;;14.27;80.93;98478.17;2232294;80;21239;-72
2021/08/30 05:24:55;;;;;;;;;;;;;;;14.29;80.91;98475.41;2234641;80;20964;-71
2021/08/30 05:27:56;;;;;;;22.17;9.58;;;;;;;14.32;80.69;98473.38;2231921;80;20094;-71
2021/08/30 05:30:59;;;;;;;23.92;9.08;;;;;;;14.26;80.60;98478.30;2232088;79;20995;-70
2021/08/30 05:34:00;;;;;;;21.17;8.50;;;;;;;14.18;80.75;98469.71;2231896;79;21043;-72
2021/08/30 05:37:02;;;;;;;22.47;8.73;;;;;;;14.19;80.92;98474.86;2232271;80;20981;-72
2021/08/30 05:40:03;;;;;;;22.67;8.83;;;;;;;14.23;80.90;98474.60;2232117;80;20976;-69
2021/08/30 05:43:05;;;;;;;21.50;8.87;;;;;;;14.27;81.01;98474.22;2232162;80;21469;-69
2021/08/30 05:46:09;;;;;;;23.57;9.73;;;;;;;14.16;80.86;98469.80;2232150;80;20933;-70
2021/08/30 05:49:09;;;;;;;23.98;9.28;;;;;;;14.11;81.29;98469.86;2212529;80;20980;-72
2021/08/30 05:52:12;;;;;;;23.20;9.57;;;;;;;14.07;81.13;98466.61;2232346;80;21538;-70
2021/08/30 05:55:14;;;;;;;23.77;9.95;;;;;;;14.02;81.23;98466.99;2231803;80;21044;-70
2021/08/30 05:58:16;;;;;;;23.18;10.20;;;;;;;13.92;81.31;98457.30;2232130;80;21000;-71
2021/08/30 06:01:17;;;;;;;21.50;9.80;;;;;;;13.94;81.63;98454.08;2232191;80;20995;-71
2021/08/30 06:04:19;;;;;;;22.50;10.53;;;;;;;13.91;81.07;98445.92;2232306;79;22015;-72
2021/08/30 06:07:20;;;;;;;23.10;10.03;;;;;;;13.90;81.21;98450.83;2232143;80;21036;-70
2021/08/30 06:10:22;;;;;;;25.12;9.98;;;;;;;13.87;81.35;98448.45;2232108;80;21458;-70
2021/08/30 06:13:23;;;;;;;23.57;10.20;;;;;;;13.88;81.47;98446.64;2232182;80;21004;-70
2021/08/30 06:16:25;;;;;;;23.32;10.40;;;;;;;13.94;81.42;98440.89;2231969;80;21455;-70
2021/08/30 06:19:26;;;;;;;22.93;10.17;;;;;;;13.96;81.44;98442.42;2232260;79;20937;-72
2021/08/30 06:22:27;;;;;;;25.57;10.90;;;;;;;14.00;81.56;98446.98;2232127;80;20971;-72
2021/08/30 06:25:29;;;;;;;23.35;10.58;;;;;;;13.97;81.55;98445.91;2231594;80;21000;-71
2021/08/30 06:28:31;;;;;;;25.67;11.43;;;;;;;13.95;81.55;98446.50;2232135;79;20969;-71
2021/08/30 06:31:32;;;;;;;24.87;10.87;;;;;;;13.93;81.55;98440.53;2232159;80;21475;-72
2021/08/30 06:34:33;;;;;;;23.43;10.87;;;;;;;14.00;81.54;98437.26;2234001;79;21020;-72
2021/08/30 06:37:37;;;;;;;23.17;10.03;;;;;;;14.03;81.58;98430.41;2235594;80;21048;-72
2021/08/30 06:40:38;;;;;;;21.68;9.73;;;;;;;14.02;81.46;98426.58;2235462;80;21497;-71
2021/08/30 06:43:40;;;;;;;22.27;10.27;;;;;;;14.08;81.50;98430.52;2235754;80;20975;-71
2021/08/30 06:46:41;;;;;;;23.17;9.93;;;;;;;14.17;81.44;98429.30;2235715;80;21515;-70
2021/08/30 06:49:42;;;;;;;23.17;9.67;;;;;;;14.25;81.18;98432.64;2235842;80;20992;-70
2021/08/30 06:52:45;;;;;;;21.68;9.53;;;;;;;14.33;81.05;98428.03;2235051;80;21605;-72
2021/08/30 06:55:46;;;;;;;22.00;9.70;;;;;;;14.41;81.22;98428.70;2235728;80;20999;-72
2021/08/30 06:58:47;;;;;;;23.20;9.77;;;;;;;14.43;80.75;98425.47;2235550;80;21032;-71
2021/08/30 07:01:49;;;;;;;21.57;9.57;;;;;;;14.50;80.91;98432.73;2235827;80;20975;-71
2021/08/30 07:04:50;;;;;;;24.13;9.73;;;;;;;14.63;80.36;98436.55;2235602;80;21008;-71
2021/08/30 07:07:52;;;;;;;22.20;9.80;;;;;;;14.76;80.45;98432.88;2235833;80;20959;-72
2021/08/30 07:10:53;;;;;;;23.20;10.10;;;;;;;14.84;80.20;98429.08;2235614;80;20975;-69
2021/08/30 07:13:54;;;;;;;21.77;10.10;;;;;;;14.94;80.09;98430.47;2235771;80;21525;-71
2021/08/30 07:16:56;;;;;;;22.00;9.80;;;;;;;14.99;80.43;98434.88;2235749;80;21024;-69
2021/08/30 07:19:58;;;;;;;21.35;9.45;;;;;;;14.98;79.99;98438.48;2235404;80;21549;-71
2021/08/30 07:23:00;;;;;;;21.07;9.63;;;;;;;15.00;80.18;98436.56;2235845;80;21007;-70
2021/08/30 07:26:01;;;;;;;;;;;;;;;15.06;80.19;98441.31;2238238;80;21487;-70
2021/08/30 07:29:03;;;;;;;25.72;9.98;;;;;;;15.07;79.99;98433.75;2235498;80;20125;-70
2021/08/30 07:32:04;;;;;;;21.53;9.97;;;;;;;15.11;80.20;98435.62;2235759;80;21541;-72
2021/08/30 07:35:06;;;;;;;24.47;12.17;;;;;;;15.19;79.96;98432.67;2235636;79;21008;-70
2021/08/30 07:38:07;;;;;;;23.87;11.30;;;;;;;15.29;79.73;98436.69;2235732;80;20945;-73
2021/08/30 07:41:09;;;;;;;21.60;10.30;;;;;;;15.35;79.67;98432.18;2236009;80;20968;-73
2021/08/30 07:44:10;;;;;;;24.65;11.50;;;;;;;15.42;79.36;98423.24;2235612;80;21002;-72
2021/08/30 07:47:12;;;;;;;22.65;10.75;;;;;;;15.40;79.85;98426.48;2235266;80;21090;-72
2021/08/30 07:50:13;;;;;;;25.30;11.57;;;;;;;15.47;79.86;98426.30;2235731;80;21030;-72
2021/08/30 07:53:15;;;;;;;25.37;11.80;;;;;;;15.57;79.43;98432.48;2235748;80;21434;-72
2021/08/30 07:56:16;;;;;;;23.70;11.63;;;;;;;15.65;79.23;98433.61;2235695;80;21019;-72
2021/08/30 07:59:18;;;;;;;25.70;12.20;;;;;;;15.68;79.67;98435.48;2235718;80;20992;-71
2021/08/30 08:02:20;;;;;;;;;;;;;;;15.75;79.07;98440.58;2238212;80;20952;-70
2021/08/30 08:05:21;;;;;;;25.05;12.40;;;;;;;15.80;78.81;98440.69;2235530;80;20123;-72
2021/08/30 08:08:23;;;;;;;24.73;12.63;;;;;;;15.90;79.76;98437.10;2235727;80;20975;-70
2021/08/30 08:11:24;;;;;;;23.47;12.17;;;;;;;15.99;79.00;98439.41;2235773;80;21481;-71
2021/08/30 08:14:26;;;;;;;25.90;12.60;;;;;;;16.10;78.55;98439.28;2235672;80;21027;-72
2021/08/30 08:17:27;;;;;;;26.23;12.57;;;;;;;16.17;78.52;98443.52;2235770;79;20924;-71
2021/08/30 08:20:31;;;;;;;26.17;13.10;;;;;;;16.18;77.98;98446.52;2235722;80;20968;-69
2021/08/30 08:23:32;;;;;;;25.23;13.22;;;;;;;16.19;77.76;98452.16;2215844;80;20968;-71
2021/08/30 08:26:33;;;;;;;26.93;13.88;;;;;;;16.21;78.14;98450.20;2235751;79;21359;-72
2021/08/30 08:29:35;;;;;;;26.55;14.40;;;;;;;16.20;77.34;98443.73;2235962;80;20992;-71
2021/08/30 08:32:38;;;;;;;25.37;13.27;;;;;;;16.20;77.71;98442.41;2235829;80;20967;-72
2021/08/30 08:35:41;;;;;;;25.88;14.28;;;;;;;16.21;77.70;98438.80;2232734;79;21052;-72
2021/08/30 08:38:42;;;;;;;25.60;13.98;;;;;;;16.17;77.44;98444.84;2232059;80;20987;-72
2021/08/30 08:41:43;;;;;;;26.93;13.87;;;;;;;16.17;78.07;98438.22;2232271;80;20988;-68
2021/08/30 08:44:45;;;;;;;26.90;13.87;;;;;;;16.06;77.73;98443.17;2232031;80;21507;-69
2021/08/30 08:47:46;;;;;;;25.77;13.40;;;;;;;15.98;77.59;98443.02;2232363;80;21005;-72
2021/08/30 08:50:48;;;;;;;24.83;13.47;;;;;;;15.93;77.58;98447.41;2232302;80;21522;-72
2021/08/30 08:53:51;;;;;;;27.65;13.75;;;;;;;15.89;77.75;98446.00;2211313;80;21028;-72
2021/08/30 08:56:52;;;;;;;26.53;14.43;;;;;;;15.90;77.69;98445.50;2232285;80;21023;-71
2021/08/30 08:59:54;;;;;;;26.50;13.85;;;;;;;15.81;77.58;98452.45;2232301;80;21554;-69
2021/08/30 09:02:55;;;;;;;27.30;13.47;;;;;;;15.70;78.08;98441.95;2232294;80;20969;-69
2021/08/30 09:05:57;;;;;;;29.20;14.27;;;;;;;15.64;78.49;98443.82;2232350;79;21463;-72
2021/08/30 09:08:58;;;;;;;27.77;15.80;;;;;;;15.64;78.90;98441.17;2232152;79;21051;-68
2021/08/30 09:12:00;;;;;;;30.62;16.40;;;;;;;15.69;78.90;98438.48;2232204;80;20936;-71
2021/08/30 09:15:01;;;;;;;28.90;16.13;;;;;;;15.71;79.31;98439.16;2232379;80;20996;-69
2021/08/30 09:18:02;;;;;;;28.10;16.17;;;;;;;15.73;78.67;98440.35;2232258;80;20963;-70
2021/08/30 09:21:04;;;;;;;29.20;16.60;;;;;;;15.70;78.99;98435.34;2232307;80;21538;-69
2021/08/30 09:24:05;;;;;;;29.17;17.63;;;;;;;15.76;79.10;98432.17;2232287;80;20933;-69
2021/08/30 09:27:07;;;;;;;29.60;16.80;;;;;;;15.81;78.63;98437.08;2232255;80;22161;-68
2021/08/30 09:30:11;;;;;;;30.30;16.90;;;;;;;15.81;78.48;98435.75;2232366;80;20999;-71
2021/08/30 09:33:11;;;;;;;31.97;18.10;;;;;;;15.79;79.16;98440.33;2212565;80;21003;-72
2021/08/30 09:36:13;;;;;;;31.83;19.80;;;;;;;15.78;80.23;98435.50;2245057;79;21648;-70
2021/08/30 09:39:14;;;;;;;34.27;22.37;;;;;;;15.77;80.18;98432.50;2246052;79;21050;-69
2021/08/30 09:42:16;;;;;;;36.90;23.80;;;;;;;15.79;79.69;98433.25;2245936;79;21035;-69
2021/08/30 09:45:17;;;;;;;38.00;24.33;;;;;;;15.68;81.26;98433.33;2246059;79;21047;-73
2021/08/30 09:48:18;;;;;;;36.27;23.30;;;;;;;15.55;81.26;98430.44;2245924;79;21019;-73
2021/08/30 09:51:20;;;;;;;35.90;23.33;;;;;;;15.49;81.95;98430.16;2245551;79;21601;-72
2021/08/30 09:54:23;;;;;;;36.20;23.50;;;;;;;15.44;81.12;98438.47;2245890;79;21694;-73
2021/08/30 09:57:25;;;;;;;34.73;22.45;;;;;;;15.42;81.67;98433.31;2217225;79;20976;-69
2021/08/30 10:00:26;;;;;;;36.20;23.33;;;;;;;15.39;80.46;98436.23;2245956;79;21557;-69
2021/08/30 10:03:27;;;;;;;35.57;22.37;;;;;;;15.33;80.27;98434.59;2245925;79;21079;-69
2021/08/30 10:06:29;;;;;;;38.83;24.57;;;;;;;15.34;80.60;98437.59;2245916;79;21549;-70
2021/08/30 10:09:30;;;;;;;37.13;23.83;;;;;;;15.27;81.01;98438.64;2246085;79;21015;-72
2021/08/30 10:12:32;;;;;;;38.28;25.52;;;;;;;15.23;80.96;98435.91;2245904;79;21051;-72
2021/08/30 10:15:33;;;;;;;36.80;24.77;;;;;;;15.25;81.33;98433.45;2246079;79;21079;-70
2021/08/30 10:18:35;;;;;;;39.00;25.93;;;;;;;15.31;81.08;98432.09;2246004;79;21016;-69
2021/08/30 10:21:37;;;;;;;40.12;25.68;;;;;;;15.31;81.50;98441.34;2245664;79;21054;-69
2021/08/30 10:24:39;;;;;;;39.73;27.07;;;;;;;15.34;81.48;98435.81;2245772;79;21032;-72
2021/08/30 10:27:40;;;;;;;39.00;26.97;;;;;;;15.35;81.39;98432.67;2245933;79;21055;-72
2021/08/30 10:30:42;;;;;;;40.30;26.87;;;;;;;15.28;81.55;98434.17;2245666;79;21103;-71
2021/08/30 10:33:43;;;;;;;41.27;26.70;;;;;;;15.23;81.49;98434.58;2245285;79;21075;-72
2021/08/30 10:36:45;;;;;;;40.03;26.48;;;;;;;15.14;82.09;98436.68;2231633;80;20981;-71
2021/08/30 10:39:46;;;;;;;40.97;27.57;;;;;;;15.19;82.41;98433.17;2232066;80;20945;-72
2021/08/30 10:42:48;;;;;;;41.30;28.13;;;;;;;15.27;82.10;98435.14;2232152;80;21040;-72
2021/08/30 10:45:56;;;;;;;35.17;23.67;;;;;;;15.32;82.35;98428.98;2232171;80;21628;-72
2021/08/30 10:48:53;;;;;;;34.50;22.02;;;;;;;15.21;82.28;98424.15;2212644;80;20972;-71
2021/08/30 10:51:54;;;;;;;35.43;22.50;;;;;;;14.95;83.27;98434.79;2232418;80;21007;-70
2021/08/30 10:54:55;;;;;;;30.03;18.00;;;;;;;14.63;84.74;98439.67;2232426;80;21538;-73
2021/08/30 10:57:57;;;;;;;31.23;17.33;;;;;;;14.63;84.74;98439.67;2232669;80;20999;-72
2021/08/30 11:00:58;;;;;;;30.33;17.87;;;;;;;14.41;85.87;98436.63;2232349;80;21667;-70
2021/08/30 11:04:00;;;;;;;31.23;19.00;;;;;;;14.26;86.29;98440.88;2232566;80;21490;-72
2021/08/30 11:07:01;;;;;;;30.90;18.83;;;;;;;14.13;86.51;98439.73;2232428;80;20963;-72
2021/08/30 11:10:02;;;;;;;29.03;17.53;;;;;;;14.03;87.53;98437.50;2232409;80;21467;-70
2021/08/30 11:13:04;;;;;;;29.80;17.63;;;;;;;13.94;88.07;98440.41;2232416;80;21003;-70
2021/08/30 11:16:05;;;;;;;29.15;15.98;;;;;;;13.89;88.32;98435.14;2231971;80;21056;-72
2021/08/30 11:19:07;;;;;;;28.90;16.67;;;;;;;13.85;89.16;98440.67;2232527;80;20976;-70
2021/08/30 11:22:09;;;;;;;28.20;15.60;;;;;;;13.83;89.19;98440.42;2232421;80;21012;-73
2021/08/30 11:25:10;;;;;;;29.42;16.12;;;;;;;13.81;89.36;98440.55;2232580;80;21017;-72
2021/08/30 11:28:12;;;;;;;29.55;16.05;;;;;;;13.81;89.01;98440.55;2231864;80;21035;-70
2021/08/30 11:31:13;;;;;;;27.20;15.00;;;;;;;13.84;89.55;98437.66;2232295;80;21495;-70
2021/08/30 11:34:14;;;;;;;25.87;14.27;;;;;;;13.89;89.37;98440.41;2232669;79;20960;-70
2021/08/30 11:37:16;;;;;;;27.17;14.50;;;;;;;13.89;89.24;98439.09;2235742;80;21526;-73
2021/08/30 11:40:17;;;;;;;28.23;13.93;;;;;;;13.89;89.56;98443.05;2235972;80;21273;-72
2021/08/30 11:43:19;;;;;;;27.17;13.98;;;;;;;13.91;89.73;98436.70;2235678;80;20987;-72
2021/08/30 11:46:20;;;;;;;27.07;14.40;;;;;;;13.95;89.50;98434.64;2235991;80;20967;-72
2021/08/30 11:49:22;;;;;;;26.77;14.33;;;;;;;13.96;89.64;98429.73;2235259;80;21000;-70
2021/08/30 11:52:24;;;;;;;24.93;13.53;;;;;;;14.03;89.42;98436.18;2235887;80;21004;-70
2021/08/30 11:55:25;;;;;;;25.32;13.18;;;;;;;14.03;89.48;98426.45;2235353;80;21015;-71
2021/08/30 11:58:27;;;;;;;23.70;11.93;;;;;;;14.11;89.68;98421.06;2235738;79;21518;-71
2021/08/30 12:01:28;;;;;;;24.83;12.63;;;;;;;14.17;89.53;98410.83;2235763;80;21514;-72
2021/08/30 12:04:29;;;;;;;23.00;11.63;;;;;;;14.23;89.64;98402.89;2235743;80;20964;-71
2021/08/30 12:07:31;;;;;;;22.95;11.30;;;;;;;14.33;89.00;98405.61;2235636;80;21490;-71
2021/08/30 12:10:34;;;;;;;23.75;10.82;;;;;;;14.41;88.69;98404.50;2235842;80;20980;-71
2021/08/30 12:13:44;;;;;;;22.07;9.28;;;;;;;14.47;89.04;98406.61;2235725;80;21022;-72
2021/08/30 12:16:39;;;;;;;21.20;9.60;;;;;;;14.54;87.66;98406.95;2215767;80;21020;-72
2021/08/30 12:19:41;;;;;;;22.05;9.80;;;;;;;14.56;88.25;98415.06;2235743;80;20941;-72
2021/08/30 12:22:42;;;;;;;20.57;8.73;;;;;;;14.61;88.30;98408.10;2235754;80;20987;-71
2021/08/30 12:25:44;;;;;;;20.20;8.70;;;;;;;14.58;87.63;98412.78;2235902;79;20987;-70
2021/08/30 12:28:46;;;;;;;20.17;8.27;;;;;;;14.71;87.87;98405.53;2235835;80;21466;-71
2021/08/30 12:31:48;;;;;;;20.75;7.90;;;;;;;14.83;88.08;98403.67;2235493;80;20952;-72
2021/08/30 12:34:49;;;;;;;21.50;8.40;;;;;;;14.85;87.16;98406.51;2235091;79;21011;-72
2021/08/30 12:37:51;;;;;;;19.70;8.37;;;;;;;14.86;87.18;98404.73;2232219;80;20940;-72
2021/08/30 12:40:52;;;;;;;20.92;8.78;;;;;;;14.95;87.94;98408.37;2232141;80;21466;-73
2021/08/30 12:43:54;;;;;;;20.23;7.83;;;;;;;14.96;87.43;98410.06;2232263;80;20999;-72
2021/08/30 12:46:55;;;;;;;20.10;8.20;;;;;;;14.93;87.06;98414.26;2232249;79;21415;-70
2021/08/30 12:49:57;;;;;;;18.73;7.97;;;;;;;15.01;87.47;98407.84;2231633;80;21111;-72
2021/08/30 12:52:58;;;;;;;19.77;8.53;;;;;;;15.01;87.68;98403.88;2232255;79;20964;-73
2021/08/30 12:56:00;;;;;;;20.32;8.28;;;;;;;15.07;86.75;98413.94;2231737;80;21046;-72
2021/08/30 12:59:01;;;;;;;21.63;8.07;;;;;;;15.07;87.08;98408.16;2232154;80;20933;-70
2021/08/30 13:02:03;;;;;;;19.52;7.70;;;;;;;15.01;86.98;98410.02;2232112;80;20987;-70
2021/08/30 13:05:05;;;;;;;18.80;7.73;;;;;;;14.92;87.38;98406.00;2232217;80;20968;-70
2021/08/30 13:08:06;;;;;;;18.10;7.20;;;;;;;14.94;87.46;98409.34;2232126;80;21469;-72
2021/08/30 13:11:07;;;;;;;19.15;7.40;;;;;;;14.93;87.27;98417.76;2232163;80;20960;-73
2021/08/30 13:14:09;;;;;;;20.33;7.83;;;;;;;14.94;88.11;98414.63;2232187;80;21415;-73
2021/08/30 13:17:10;;;;;;;20.10;8.20;;;;;;;14.88;87.50;98419.94;2232107;80;21012;-72
2021/08/30 13:20:12;;;;;;;19.03;7.83;;;;;;;14.80;87.70;98415.33;2232153;80;20999;-73
2021/08/30 13:23:13;;;;;;;20.10;8.33;;;;;;;14.76;87.64;98423.64;2232316;80;21305;-71
2021/08/30 13:26:15;;;;;;;18.25;7.28;;;;;;;14.76;88.66;98425.78;2232094;80;20976;-70
2021/08/30 13:29:16;;;;;;;19.65;6.95;;;;;;;14.80;88.50;98419.78;2231652;80;21043;-73
2021/08/30 13:32:18;;;;;;;21.30;7.47;;;;;;;14.82;88.28;98419.98;2232228;79;20972;-73
2021/08/30 13:35:19;;;;;;;21.80;9.07;;;;;;;14.80;88.51;98418.46;2232041;80;21487;-72
2021/08/30 13:38:21;;;;;;;18.90;7.62;;;;;;;14.75;88.57;98417.50;2232054;80;21010;-72
2021/08/30 13:41:22;;;;;;;19.27;7.70;;;;;;;14.69;88.64;98424.63;2232157;80;21550;-70
2021/08/30 13:44:24;;;;;;;20.27;8.20;;;;;;;14.75;88.80;98416.19;2232119;80;21046;-70
2021/08/30 13:47:25;;;;;;;21.50;9.17;;;;;;;14.78;88.84;98424.33;2232186;80;20968;-70
2021/08/30 13:50:27;;;;;;;19.30;7.90;;;;;;;14.68;88.65;98406.66;2232284;79;20952;-72
2021/08/30 13:53:28;;;;;;;20.48;8.70;;;;;;;14.65;88.57;98425.39;2232046;80;21004;-73
2021/08/30 13:56:29;;;;;;;21.48;9.43;;;;;;;14.63;88.67;98429.12;2231681;80;21551;-73
2021/08/30 13:59:31;;;;;;;23.17;10.30;;;;;;;14.59;89.36;98425.85;2232163;79;20968;-73
2021/08/30 14:02:33;;;;;;;21.53;9.47;;;;;;;14.58;89.04;98420.70;2232160;80;20984;-72
2021/08/30 14:05:37;;;;;;;22.48;9.65;;;;;;;14.53;89.29;98421.09;2231729;80;21037;-72